sensor_id;sensor_type;location;lat;lon;timestamp;pressure;altitude;pressure_sealevel;temperature;humidity
70015;BME280;57358;51.094;6.760;2023-01-30T00:01:27;101599.91;;;2.76;100.00
70015;BME280;57358;51.094;6.760;2023-01-30T00:03:54;101571.41;;;2.71;100.00
70015;BME280;57358;51.094;6.760;2023-01-30T00:06:22;101534.38;;;2.52;100.00
70015;BME280;57358;51.094;6.760;2023-01-30T00:08:49;101496.44;;;2.40;100.00
70015;BME280;57358;51.094;6.760;2023-01-30T00:11:17;101353.66;;;1.46;100.00
70015;BME280;57358;51.094;6.760;2023-01-30T00:13:46;101497.34;;;2.30;100.00
70015;BME280;57358;51.094;6.760;2023-01-30T00:16:12;101573.94;;;2.85;100.00
70015;BME280;57358;51.094;6.760;2023-01-30T00:18:40;101474.09;;;2.21;100.00
70015;BME280;57358;51.094;6.760;2023-01-30T00:21:09;101549.75;;;2.78;100.00
70015;BME280;57358;51.094;6.760;2023-01-30T00:23:37;101465.41;;;2.30;100.00
70015;BME280;57358;51.094;6.760;2023-01-30T00:26:05;101561.78;;;2.95;100.00
70015;BME280;57358;51.094;6.760;2023-01-30T00:28:32;101499.69;;;2.73;100.00
70015;BME280;57358;51.094;6.760;2023-01-30T00:30:58;101555.66;;;3.00;100.00
70015;BME280;57358;51.094;6.760;2023-01-30T00:33:26;101553.06;;;3.07;100.00
70015;BME280;57358;51.094;6.760;2023-01-30T00:35:54;101449.75;;;2.50;100.00
70015;BME280;57358;51.094;6.760;2023-01-30T00:38:22;101548.63;;;3.19;100.00
70015;BME280;57358;51.094;6.760;2023-01-30T00:40:49;101545.19;;;3.16;100.00
70015;BME280;57358;51.094;6.760;2023-01-30T00:43:17;101533.91;;;3.18;100.00
70015;BME280;57358;51.094;6.760;2023-01-30T00:46:09;101530.47;;;3.18;100.00
70015;BME280;57358;51.094;6.760;2023-01-30T00:48:57;101517.50;;;3.16;100.00
70015;BME280;57358;51.094;6.760;2023-01-30T00:51:23;101513.22;;;3.15;100.00
70015;BME280;57358;51.094;6.760;2023-01-30T00:53:50;101471.19;;;2.75;100.00
70015;BME280;57358;51.094;6.760;2023-01-30T00:56:16;101464.13;;;2.94;100.00
70015;BME280;57358;51.094;6.760;2023-01-30T00:58:42;101365.16;;;2.46;100.00
70015;BME280;57358;51.094;6.760;2023-01-30T01:01:09;101460.63;;;2.98;100.00
70015;BME280;57358;51.094;6.760;2023-01-30T01:03:35;101480.34;;;3.14;100.00
70015;BME280;57358;51.094;6.760;2023-01-30T01:06:02;101479.44;;;3.20;100.00
70015;BME280;57358;51.094;6.760;2023-01-30T01:08:28;101439.94;;;2.93;100.00
70015;BME280;57358;51.094;6.760;2023-01-30T01:10:55;101258.53;;;1.93;100.00
70015;BME280;57358;51.094;6.760;2023-01-30T01:13:21;101457.69;;;3.35;100.00
70015;BME280;57358;51.094;6.760;2023-01-30T01:15:48;101256.84;;;1.87;100.00
70015;BME280;57358;51.094;6.760;2023-01-30T01:18:15;101419.97;;;3.02;100.00
70015;BME280;57358;51.094;6.760;2023-01-30T01:20:41;101430.22;;;3.14;100.00
70015;BME280;57358;51.094;6.760;2023-01-30T01:23:09;101457.72;;;3.32;100.00
70015;BME280;57358;51.094;6.760;2023-01-30T01:25:36;101368.31;;;2.78;100.00
70015;BME280;57358;51.094;6.760;2023-01-30T01:28:02;101420.56;;;3.27;100.00
70015;BME280;57358;51.094;6.760;2023-01-30T01:30:29;101453.28;;;3.43;100.00
70015;BME280;57358;51.094;6.760;2023-01-30T01:32:56;101363.03;;;2.91;100.00
70015;BME280;57358;51.094;6.760;2023-01-30T01:35:22;101428.25;;;3.37;100.00
70015;BME280;57358;51.094;6.760;2023-01-30T01:37:52;101421.44;;;3.29;100.00
70015;BME280;57358;51.094;6.760;2023-01-30T01:40:20;101358.72;;;2.91;100.00
70015;BME280;57358;51.094;6.760;2023-01-30T01:43:15;101447.16;;;3.50;100.00
70015;BME280;57358;51.094;6.760;2023-01-30T01:45:42;101442.78;;;3.54;100.00
70015;BME280;57358;51.094;6.760;2023-01-30T01:48:24;101248.69;;;2.33;100.00
70015;BME280;57358;51.094;6.760;2023-01-30T01:50:58;101446.28;;;3.53;100.00
70015;BME280;57358;51.094;6.760;2023-01-30T01:53:31;101359.44;;;3.04;100.00
70015;BME280;57358;51.094;6.760;2023-01-30T01:56:00;101405.81;;;3.35;100.00
70015;BME280;57358;51.094;6.760;2023-01-30T01:58:39;101404.09;;;3.32;100.00
70015;BME280;57358;51.094;6.760;2023-01-30T02:01:07;101380.88;;;3.18;100.00
70015;BME280;57358;51.094;6.760;2023-01-30T02:03:38;101427.47;;;3.31;100.00
70015;BME280;57358;51.094;6.760;2023-01-30T02:06:06;101361.94;;;3.13;100.00
70015;BME280;57358;51.094;6.760;2023-01-30T02:08:37;101427.16;;;3.58;100.00
70015;BME280;57358;51.094;6.760;2023-01-30T02:11:30;101427.13;;;3.62;100.00
70015;BME280;57358;51.094;6.760;2023-01-30T02:13:55;101338.53;;;3.19;100.00
70015;BME280;57358;51.094;6.760;2023-01-30T02:16:22;101365.09;;;3.42;100.00
70015;BME280;57358;51.094;6.760;2023-01-30T02:18:49;101352.25;;;3.31;100.00
70015;BME280;57358;51.094;6.760;2023-01-30T02:27:14;101374.31;;;3.63;100.00
70015;BME280;57358;51.094;6.760;2023-01-30T02:35:23;101369.97;;;3.65;100.00
70015;BME280;57358;51.094;6.760;2023-01-30T02:40:38;101174.22;;;2.52;100.00
70015;BME280;57358;51.094;6.760;2023-01-30T02:43:53;101365.63;;;3.67;100.00
70015;BME280;57358;51.094;6.760;2023-01-30T02:46:26;101332.94;;;3.53;100.00
70015;BME280;57358;51.094;6.760;2023-01-30T02:49:09;101274.53;;;3.23;100.00
70015;BME280;57358;51.094;6.760;2023-01-30T02:51:38;101307.94;;;3.46;100.00
70015;BME280;57358;51.094;6.760;2023-01-30T02:54:06;101318.06;;;3.65;100.00
70015;BME280;57358;51.094;6.760;2023-01-30T02:56:53;101319.78;;;3.67;100.00
70015;BME280;57358;51.094;6.760;2023-01-30T03:04:56;101290.28;;;3.73;100.00
70015;BME280;57358;51.094;6.760;2023-01-30T03:07:41;101273.25;;;3.53;100.00
70015;BME280;57358;51.094;6.760;2023-01-30T03:13:09;101315.25;;;3.83;100.00
70015;BME280;57358;51.094;6.760;2023-01-30T03:18:10;101308.22;;;3.90;100.00
70015;BME280;57358;51.094;6.760;2023-01-30T03:20:38;101308.13;;;3.94;100.00
70015;BME280;57358;51.094;6.760;2023-01-30T03:23:06;101204.31;;;3.35;100.00
70015;BME280;57358;51.094;6.760;2023-01-30T03:25:34;101230.06;;;3.49;100.00
70015;BME280;57358;51.094;6.760;2023-01-30T03:28:02;101284.75;;;3.94;100.00
70015;BME280;57358;51.094;6.760;2023-01-30T03:30:30;101220.53;;;3.51;100.00
70015;BME280;57358;51.094;6.760;2023-01-30T03:32:56;101277.34;;;3.70;100.00
70015;BME280;57358;51.094;6.760;2023-01-30T03:35:23;101284.63;;;4.04;100.00
70015;BME280;57358;51.094;6.760;2023-01-30T03:37:49;101223.78;;;3.64;100.00
70015;BME280;57358;51.094;6.760;2023-01-30T03:40:16;101284.72;;;3.99;100.00
70015;BME280;57358;51.094;6.760;2023-01-30T03:42:43;101243.50;;;3.76;100.00
70015;BME280;57358;51.094;6.760;2023-01-30T03:45:10;101271.66;;;4.02;100.00
70015;BME280;57358;51.094;6.760;2023-01-30T03:47:37;101282.13;;;3.97;100.00
70015;BME280;57358;51.094;6.760;2023-01-30T03:50:03;101197.00;;;3.62;100.00
70015;BME280;57358;51.094;6.760;2023-01-30T03:52:30;101050.41;;;2.77;100.00
70015;BME280;57358;51.094;6.760;2023-01-30T03:54:56;101109.56;;;3.11;100.00
70015;BME280;57358;51.094;6.760;2023-01-30T03:57:23;101261.34;;;3.97;100.00
70015;BME280;57358;51.094;6.760;2023-01-30T03:59:51;101170.22;;;3.58;100.00
70015;BME280;57358;51.094;6.760;2023-01-30T04:02:18;101202.81;;;3.78;100.00
70015;BME280;57358;51.094;6.760;2023-01-30T04:04:48;101185.66;;;3.68;100.00
70015;BME280;57358;51.094;6.760;2023-01-30T04:07:15;101203.41;;;3.94;100.00
70015;BME280;57358;51.094;6.760;2023-01-30T04:09:44;101118.41;;;3.52;100.00
70015;BME280;57358;51.094;6.760;2023-01-30T04:12:10;101123.56;;;3.55;100.00
70015;BME280;57358;51.094;6.760;2023-01-30T04:14:36;101227.31;;;4.13;100.00
70015;BME280;57358;51.094;6.760;2023-01-30T04:17:03;101168.19;;;3.79;100.00
70015;BME280;57358;51.094;6.760;2023-01-30T04:19:29;101218.69;;;4.11;100.00
70015;BME280;57358;51.094;6.760;2023-01-30T04:21:55;101229.03;;;4.15;100.00
70015;BME280;57358;51.094;6.760;2023-01-30T04:24:22;100997.69;;;2.78;100.00
70015;BME280;57358;51.094;6.760;2023-01-30T04:26:51;101091.94;;;3.33;100.00
70015;BME280;57358;51.094;6.760;2023-01-30T04:29:17;101139.72;;;3.73;100.00
70015;BME280;57358;51.094;6.760;2023-01-30T04:31:44;101219.44;;;4.19;100.00
70015;BME280;57358;51.094;6.760;2023-01-30T04:34:10;101131.16;;;3.68;100.00
70015;BME280;57358;51.094;6.760;2023-01-30T04:36:39;101114.88;;;3.56;100.00
70015;BME280;57358;51.094;6.760;2023-01-30T04:39:06;101198.66;;;4.19;100.00
70015;BME280;57358;51.094;6.760;2023-01-30T04:41:32;101197.09;;;4.09;100.00
70015;BME280;57358;51.094;6.760;2023-01-30T04:43:59;101024.91;;;3.07;100.00
70015;BME280;57358;51.094;6.760;2023-01-30T04:46:25;101149.84;;;3.87;100.00
70015;BME280;57358;51.094;6.760;2023-01-30T04:48:52;101150.84;;;3.81;100.00
70015;BME280;57358;51.094;6.760;2023-01-30T04:51:18;101161.06;;;3.89;100.00
70015;BME280;57358;51.094;6.760;2023-01-30T04:53:44;101064.97;;;3.40;100.00
70015;BME280;57358;51.094;6.760;2023-01-30T04:56:11;101196.06;;;4.19;100.00
70015;BME280;57358;51.094;6.760;2023-01-30T04:58:37;101091.72;;;3.47;100.00
70015;BME280;57358;51.094;6.760;2023-01-30T05:03:40;101201.28;;;4.17;100.00
70015;BME280;57358;51.094;6.760;2023-01-30T05:06:06;101195.16;;;4.22;100.00
70015;BME280;57358;51.094;6.760;2023-01-30T05:08:33;101190.91;;;4.17;100.00
70015;BME280;57358;51.094;6.760;2023-01-30T05:10:59;101133.69;;;3.71;100.00
70015;BME280;57358;51.094;6.760;2023-01-30T05:13:25;101089.03;;;3.50;100.00
70015;BME280;57358;51.094;6.760;2023-01-30T05:15:52;101182.31;;;4.12;100.00
70015;BME280;57358;51.094;6.760;2023-01-30T05:18:18;101193.47;;;4.19;100.00
70015;BME280;57358;51.094;6.760;2023-01-30T05:20:45;101128.25;;;3.86;100.00
70015;BME280;57358;51.094;6.760;2023-01-30T05:23:11;101181.25;;;4.23;100.00
70015;BME280;57358;51.094;6.760;2023-01-30T05:25:37;101081.72;;;3.75;100.00
70015;BME280;57358;51.094;6.760;2023-01-30T05:28:04;101119.34;;;3.99;100.00
70015;BME280;57358;51.094;6.760;2023-01-30T05:30:30;101149.25;;;4.22;100.00
70015;BME280;57358;51.094;6.760;2023-01-30T05:32:57;101129.50;;;4.12;100.00
70015;BME280;57358;51.094;6.760;2023-01-30T05:35:24;101145.66;;;4.28;100.00
70015;BME280;57358;51.094;6.760;2023-01-30T05:37:51;101166.25;;;4.38;100.00
70015;BME280;57358;51.094;6.760;2023-01-30T05:40:17;101175.66;;;4.44;100.00
70015;BME280;57358;51.094;6.760;2023-01-30T05:42:44;101140.53;;;4.25;100.00
70015;BME280;57358;51.094;6.760;2023-01-30T05:45:10;101170.34;;;4.52;100.00
70015;BME280;57358;51.094;6.760;2023-01-30T05:47:36;101084.81;;;3.94;100.00
70015;BME280;57358;51.094;6.760;2023-01-30T05:50:03;101100.13;;;4.08;100.00
70015;BME280;57358;51.094;6.760;2023-01-30T05:52:30;101110.38;;;4.17;100.00
70015;BME280;57358;51.094;6.760;2023-01-30T05:54:56;101076.88;;;4.02;100.00
70015;BME280;57358;51.094;6.760;2023-01-30T05:57:25;101140.34;;;4.35;100.00
70015;BME280;57358;51.094;6.760;2023-01-30T05:59:51;101150.22;;;4.62;100.00
70015;BME280;57358;51.094;6.760;2023-01-30T06:02:18;101026.78;;;3.97;100.00
70015;BME280;57358;51.094;6.760;2023-01-30T06:04:44;101091.13;;;4.28;100.00
70015;BME280;57358;51.094;6.760;2023-01-30T06:07:11;101156.84;;;4.76;100.00
70015;BME280;57358;51.094;6.760;2023-01-30T06:09:37;101060.09;;;4.20;100.00
70015;BME280;57358;51.094;6.760;2023-01-30T06:12:03;101126.03;;;4.58;100.00
70015;BME280;57358;51.094;6.760;2023-01-30T06:14:31;101182.00;;;4.74;100.00
70015;BME280;57358;51.094;6.760;2023-01-30T06:16:57;101084.38;;;4.19;100.00
70015;BME280;57358;51.094;6.760;2023-01-30T06:19:24;101161.88;;;4.84;100.00
70015;BME280;57358;51.094;6.760;2023-01-30T06:21:50;101108.94;;;4.46;100.00
70015;BME280;57358;51.094;6.760;2023-01-30T06:24:17;101171.47;;;4.80;100.00
70015;BME280;57358;51.094;6.760;2023-01-30T06:26:43;101125.31;;;4.50;100.00
70015;BME280;57358;51.094;6.760;2023-01-30T06:29:10;101200.00;;;4.85;100.00
70015;BME280;57358;51.094;6.760;2023-01-30T06:31:36;101150.34;;;4.55;100.00
70015;BME280;57358;51.094;6.760;2023-01-30T06:34:03;101123.78;;;4.39;100.00
70015;BME280;57358;51.094;6.760;2023-01-30T06:36:29;101158.69;;;4.71;100.00
70015;BME280;57358;51.094;6.760;2023-01-30T06:38:55;101127.09;;;4.48;100.00
70015;BME280;57358;51.094;6.760;2023-01-30T06:41:22;101085.00;;;4.29;100.00
70015;BME280;57358;51.094;6.760;2023-01-30T06:43:48;101199.88;;;4.91;100.00
70015;BME280;57358;51.094;6.760;2023-01-30T06:46:15;101195.41;;;4.98;100.00
70015;BME280;57358;51.094;6.760;2023-01-30T06:48:41;101195.38;;;4.99;100.00
70015;BME280;57358;51.094;6.760;2023-01-30T06:51:08;101148.22;;;4.73;100.00
70015;BME280;57358;51.094;6.760;2023-01-30T06:53:35;101145.81;;;4.65;100.00
70015;BME280;57358;51.094;6.760;2023-01-30T06:56:02;101208.31;;;5.01;100.00
70015;BME280;57358;51.094;6.760;2023-01-30T06:58:28;101140.84;;;4.53;100.00
70015;BME280;57358;51.094;6.760;2023-01-30T07:00:55;101221.38;;;4.99;100.00
70015;BME280;57358;51.094;6.760;2023-01-30T07:03:22;101139.13;;;4.53;100.00
70015;BME280;57358;51.094;6.760;2023-01-30T07:06:10;101037.38;;;3.86;100.00
70015;BME280;57358;51.094;6.760;2023-01-30T07:08:37;101177.72;;;4.72;100.00
70015;BME280;57358;51.094;6.760;2023-01-30T07:11:03;101230.81;;;5.05;100.00
70015;BME280;57358;51.094;6.760;2023-01-30T07:13:30;101222.22;;;5.00;100.00
70015;BME280;57358;51.094;6.760;2023-01-30T07:15:57;101162.41;;;4.58;100.00
70015;BME280;57358;51.094;6.760;2023-01-30T07:18:23;101187.22;;;4.73;100.00
70015;BME280;57358;51.094;6.760;2023-01-30T07:20:50;101236.88;;;5.04;100.00
70015;BME280;57358;51.094;6.760;2023-01-30T07:23:18;101153.63;;;4.64;100.00
70015;BME280;57358;51.094;6.760;2023-01-30T07:25:45;101171.69;;;4.71;100.00
70015;BME280;57358;51.094;6.760;2023-01-30T07:28:11;101154.56;;;4.61;100.00
70015;BME280;57358;51.094;6.760;2023-01-30T07:30:38;101215.22;;;5.04;100.00
70015;BME280;57358;51.094;6.760;2023-01-30T07:33:05;101225.63;;;5.05;100.00
70015;BME280;57358;51.094;6.760;2023-01-30T07:35:34;101185.44;;;4.76;100.00
70015;BME280;57358;51.094;6.760;2023-01-30T07:38:00;101169.13;;;4.68;100.00
70015;BME280;57358;51.094;6.760;2023-01-30T07:40:27;101217.75;;;5.07;100.00
70015;BME280;57358;51.094;6.760;2023-01-30T07:43:10;101213.53;;;5.01;100.00
70015;BME280;57358;51.094;6.760;2023-01-30T07:45:46;101226.38;;;5.09;100.00
70015;BME280;57358;51.094;6.760;2023-01-30T07:48:15;101238.38;;;5.16;100.00
70015;BME280;57358;51.094;6.760;2023-01-30T07:50:42;101182.78;;;4.79;100.00
70015;BME280;57358;51.094;6.760;2023-01-30T07:53:11;101226.34;;;5.10;100.00
70015;BME280;57358;51.094;6.760;2023-01-30T07:55:38;101234.00;;;5.18;100.00
70015;BME280;57358;51.094;6.760;2023-01-30T07:58:05;101237.41;;;5.22;100.00
70015;BME280;57358;51.094;6.760;2023-01-30T08:00:31;101208.38;;;4.99;100.00
70015;BME280;57358;51.094;6.760;2023-01-30T08:02:58;101238.28;;;5.20;100.00
70015;BME280;57358;51.094;6.760;2023-01-30T08:05:25;101209.94;;;5.07;100.00
70015;BME280;57358;51.094;6.760;2023-01-30T08:07:54;101234.69;;;5.26;100.00
70015;BME280;57358;51.094;6.760;2023-01-30T08:10:21;101244.16;;;5.29;100.00
70015;BME280;57358;51.094;6.760;2023-01-30T08:12:51;101239.75;;;5.32;100.00
70015;BME280;57358;51.094;6.760;2023-01-30T08:15:17;101247.59;;;5.31;100.00
70015;BME280;57358;51.094;6.760;2023-01-30T08:17:54;101246.72;;;5.32;100.00
70015;BME280;57358;51.094;6.760;2023-01-30T08:20:21;101234.25;;;5.06;100.00
70015;BME280;57358;51.094;6.760;2023-01-30T08:22:48;101247.84;;;5.20;100.00
70015;BME280;57358;51.094;6.760;2023-01-30T08:25:14;101145.16;;;4.55;100.00
70015;BME280;57358;51.094;6.760;2023-01-30T08:27:41;101172.56;;;4.70;100.00
70015;BME280;57358;51.094;6.760;2023-01-30T08:30:08;101212.75;;;4.97;100.00
70015;BME280;57358;51.094;6.760;2023-01-30T08:32:35;101129.81;;;4.42;100.00
70015;BME280;57358;51.094;6.760;2023-01-30T08:35:02;101239.44;;;5.07;100.00
70015;BME280;57358;51.094;6.760;2023-01-30T08:37:28;101200.84;;;4.87;100.00
70015;BME280;57358;51.094;6.760;2023-01-30T08:39:55;101198.34;;;4.81;100.00
70015;BME280;57358;51.094;6.760;2023-01-30T08:42:21;101259.75;;;5.32;100.00
70015;BME280;57358;51.094;6.760;2023-01-30T08:44:48;101232.47;;;5.09;100.00
70015;BME280;57358;51.094;6.760;2023-01-30T08:47:15;101270.84;;;5.40;100.00
70015;BME280;57358;51.094;6.760;2023-01-30T08:49:41;101272.19;;;5.58;100.00
70015;BME280;57358;51.094;6.760;2023-01-30T08:52:08;101218.81;;;5.38;100.00
70015;BME280;57358;51.094;6.760;2023-01-30T08:54:35;101260.63;;;5.71;100.00
70015;BME280;57358;51.094;6.760;2023-01-30T08:57:01;101173.16;;;5.25;100.00
70015;BME280;57358;51.094;6.760;2023-01-30T08:59:28;101286.44;;;5.80;100.00
70015;BME280;57358;51.094;6.760;2023-01-30T09:01:54;101172.13;;;5.31;100.00
70015;BME280;57358;51.094;6.760;2023-01-30T09:04:21;101286.97;;;5.95;100.00
70015;BME280;57358;51.094;6.760;2023-01-30T09:06:50;101064.13;;;4.75;100.00
70015;BME280;57358;51.094;6.760;2023-01-30T09:09:16;101214.13;;;5.90;100.00
70015;BME280;57358;51.094;6.760;2023-01-30T09:11:43;101240.81;;;6.02;100.00
70015;BME280;57358;51.094;6.760;2023-01-30T09:14:09;101230.41;;;6.02;100.00
70015;BME280;57358;51.094;6.760;2023-01-30T09:16:36;101178.34;;;5.63;100.00
70015;BME280;57358;51.094;6.760;2023-01-30T09:19:02;101208.28;;;5.80;100.00
70015;BME280;57358;51.094;6.760;2023-01-30T09:21:29;101276.84;;;6.20;100.00
70015;BME280;57358;51.094;6.760;2023-01-30T09:23:57;101250.75;;;6.22;100.00
70015;BME280;57358;51.094;6.760;2023-01-30T09:26:23;101206.25;;;5.93;100.00
70015;BME280;57358;51.094;6.760;2023-01-30T09:28:50;101244.44;;;6.30;100.00
70015;BME280;57358;51.094;6.760;2023-01-30T09:31:16;101251.41;;;6.30;100.00
70015;BME280;57358;51.094;6.760;2023-01-30T09:33:43;101234.78;;;5.99;100.00
70015;BME280;57358;51.094;6.760;2023-01-30T09:36:09;101253.38;;;6.20;100.00
70015;BME280;57358;51.094;6.760;2023-01-30T09:38:35;101242.28;;;6.13;100.00
70015;BME280;57358;51.094;6.760;2023-01-30T09:41:23;101286.06;;;6.33;100.00
70015;BME280;57358;51.094;6.760;2023-01-30T09:51:57;101241.88;;;6.29;100.00
70015;BME280;57358;51.094;6.760;2023-01-30T09:54:33;101222.38;;;6.09;100.00
70015;BME280;57358;51.094;6.760;2023-01-30T10:00:05;101294.47;;;6.45;100.00
70015;BME280;57358;51.094;6.760;2023-01-30T10:05:39;101274.38;;;6.81;100.00
70015;BME280;57358;51.094;6.760;2023-01-30T10:16:36;101272.38;;;6.91;100.00
70015;BME280;57358;51.094;6.760;2023-01-30T10:27:22;101270.66;;;6.58;100.00
70015;BME280;57358;51.094;6.760;2023-01-30T10:29:53;101290.34;;;6.70;100.00
70015;BME280;57358;51.094;6.760;2023-01-30T10:32:47;101280.69;;;6.74;100.00
70015;BME280;57358;51.094;6.760;2023-01-30T10:35:18;101214.03;;;6.29;100.00
70015;BME280;57358;51.094;6.760;2023-01-30T10:37:57;101260.72;;;6.71;100.00
70015;BME280;57358;51.094;6.760;2023-01-30T10:40:42;101264.44;;;6.63;100.00
70015;BME280;57358;51.094;6.760;2023-01-30T10:43:30;101264.47;;;6.61;99.24
70015;BME280;57358;51.094;6.760;2023-01-30T10:46:23;101266.00;;;6.70;99.26
70015;BME280;57358;51.094;6.760;2023-01-30T10:48:58;101242.75;;;6.62;97.99
70015;BME280;57358;51.094;6.760;2023-01-30T10:51:36;101179.47;;;6.23;97.51
70015;BME280;57358;51.094;6.760;2023-01-30T10:54:39;101270.28;;;6.72;97.64
70015;BME280;57358;51.094;6.760;2023-01-30T10:57:37;101207.84;;;6.33;97.07
70015;BME280;57358;51.094;6.760;2023-01-30T11:00:28;101273.22;;;6.60;96.54
70015;BME280;57358;51.094;6.760;2023-01-30T11:03:18;101269.63;;;6.64;95.89
70015;BME280;57358;51.094;6.760;2023-01-30T11:05:51;101253.25;;;6.59;94.95
70015;BME280;57358;51.094;6.760;2023-01-30T11:08:23;101254.94;;;6.62;95.11
70015;BME280;57358;51.094;6.760;2023-01-30T11:10:51;101205.47;;;6.26;95.35
70015;BME280;57358;51.094;6.760;2023-01-30T11:13:20;101238.75;;;6.49;95.34
70015;BME280;57358;51.094;6.760;2023-01-30T11:15:50;101235.41;;;6.44;95.36
70015;BME280;57358;51.094;6.760;2023-01-30T11:18:19;101252.63;;;6.49;95.27
70015;BME280;57358;51.094;6.760;2023-01-30T11:21:10;101246.41;;;6.55;93.80
70015;BME280;57358;51.094;6.760;2023-01-30T11:23:42;101226.09;;;6.33;94.59
70015;BME280;57358;51.094;6.760;2023-01-30T11:26:24;101115.00;;;5.62;94.05
70015;BME280;57358;51.094;6.760;2023-01-30T11:29:19;101253.66;;;6.44;94.76
70015;BME280;57358;51.094;6.760;2023-01-30T11:31:49;101195.31;;;6.15;94.37
70015;BME280;57358;51.094;6.760;2023-01-30T11:34:19;101183.00;;;6.22;94.90
70015;BME280;57358;51.094;6.760;2023-01-30T11:36:46;101223.03;;;6.52;93.69
70015;BME280;57358;51.094;6.760;2023-01-30T11:44:25;101224.22;;;6.71;92.36
70015;BME280;57358;51.094;6.760;2023-01-30T11:46:52;101232.72;;;6.79;91.14
70015;BME280;57358;51.094;6.760;2023-01-30T11:49:20;101228.31;;;6.82;90.50
70015;BME280;57358;51.094;6.760;2023-01-30T11:52:07;101177.88;;;6.50;89.54
70015;BME280;57358;51.094;6.760;2023-01-30T11:54:38;101223.97;;;6.81;90.42
70015;BME280;57358;51.094;6.760;2023-01-30T11:57:11;101177.06;;;6.48;89.64
70015;BME280;57358;51.094;6.760;2023-01-30T11:59:43;101202.06;;;6.55;90.96
70015;BME280;57358;51.094;6.760;2023-01-30T12:02:22;101220.84;;;6.68;90.50
70015;BME280;57358;51.094;6.760;2023-01-30T12:04:54;101136.94;;;6.22;90.49
70015;BME280;57358;51.094;6.760;2023-01-30T12:07:29;101157.47;;;6.33;89.52
70015;BME280;57358;51.094;6.760;2023-01-30T12:09:57;101208.22;;;6.52;89.47
70015;BME280;57358;51.094;6.760;2023-01-30T12:15:12;101213.44;;;6.52;91.47
70015;BME280;57358;51.094;6.760;2023-01-30T12:20:31;101214.25;;;6.54;90.29
70015;BME280;57358;51.094;6.760;2023-01-30T12:23:12;101153.41;;;6.23;91.57
70015;BME280;57358;51.094;6.760;2023-01-30T12:28:28;101220.69;;;6.74;89.64
70015;BME280;57358;51.094;6.760;2023-01-30T12:31:12;101176.91;;;6.54;87.75
70015;BME280;57358;51.094;6.760;2023-01-30T12:33:40;101165.72;;;6.49;86.37
70015;BME280;57358;51.094;6.760;2023-01-30T12:36:34;101184.63;;;6.57;86.35
70015;BME280;57358;51.094;6.760;2023-01-30T12:52:23;101143.53;;;6.95;79.92
70015;BME280;57358;51.094;6.760;2023-01-30T12:58:49;101124.09;;;7.05;79.19
70015;BME280;57358;51.094;6.760;2023-01-30T13:01:12;101121.22;;;7.14;76.97
70015;BME280;57358;51.094;6.760;2023-01-30T13:03:42;101109.16;;;7.10;77.18
70015;BME280;57358;51.094;6.760;2023-01-30T13:06:35;101138.13;;;7.29;76.82
70015;BME280;57358;51.094;6.760;2023-01-30T13:12:22;100954.97;;;6.05;76.92
70015;BME280;57358;51.094;6.760;2023-01-30T13:15:15;101131.06;;;7.05;78.36
70015;BME280;57358;51.094;6.760;2023-01-30T13:23:00;101121.84;;;6.93;78.57
70015;BME280;57358;51.094;6.760;2023-01-30T13:28:37;101125.00;;;7.04;77.41
70015;BME280;57358;51.094;6.760;2023-01-30T13:31:08;101077.22;;;6.74;76.91
70015;BME280;57358;51.094;6.760;2023-01-30T13:33:38;101059.88;;;6.71;77.00
70015;BME280;57358;51.094;6.760;2023-01-30T13:36:18;101052.25;;;6.65;77.12
70015;BME280;57358;51.094;6.760;2023-01-30T13:39:00;101135.72;;;7.23;75.39
70015;BME280;57358;51.094;6.760;2023-01-30T13:41:31;101137.88;;;7.10;75.32
70015;BME280;57358;51.094;6.760;2023-01-30T13:44:01;101147.31;;;7.14;75.51
70015;BME280;57358;51.094;6.760;2023-01-30T13:46:33;101082.53;;;6.71;75.72
70015;BME280;57358;51.094;6.760;2023-01-30T13:49:19;101136.28;;;7.05;76.61
70015;BME280;57358;51.094;6.760;2023-01-30T13:51:48;100944.13;;;5.89;76.56
70015;BME280;57358;51.094;6.760;2023-01-30T13:54:47;101156.22;;;7.07;76.54
70015;BME280;57358;51.094;6.760;2023-01-30T13:57:20;101162.34;;;7.06;76.88
70015;BME280;57358;51.094;6.760;2023-01-30T14:08:17;101193.75;;;7.03;76.87
70015;BME280;57358;51.094;6.760;2023-01-30T14:10:46;101072.47;;;6.58;76.09
70015;BME280;57358;51.094;6.760;2023-01-30T14:13:14;101113.00;;;6.69;75.59
70015;BME280;57358;51.094;6.760;2023-01-30T14:16:02;101165.97;;;7.02;76.50
70015;BME280;57358;51.094;6.760;2023-01-30T14:18:34;101106.00;;;6.71;76.06
70015;BME280;57358;51.094;6.760;2023-01-30T14:21:13;101154.66;;;7.02;75.59
70015;BME280;57358;51.094;6.760;2023-01-30T14:23:40;101077.59;;;6.62;74.84
70015;BME280;57358;51.094;6.760;2023-01-30T14:40:27;101068.44;;;6.47;74.97
70015;BME280;57358;51.094;6.760;2023-01-30T14:56:55;101174.97;;;6.92;75.14
70015;BME280;57358;51.094;6.760;2023-01-30T14:59:31;101172.34;;;6.92;74.83
70015;BME280;57358;51.094;6.760;2023-01-30T15:04:49;101189.06;;;6.85;75.72
70015;BME280;57358;51.094;6.760;2023-01-30T15:10:02;101198.88;;;6.76;75.94
70015;BME280;57358;51.094;6.760;2023-01-30T15:15:20;101218.78;;;6.79;77.31
70015;BME280;57358;51.094;6.760;2023-01-30T15:31:54;101306.09;;;6.31;82.92
70015;BME280;57358;51.094;6.760;2023-01-30T15:34:22;101322.94;;;6.54;81.94
70015;BME280;57358;51.094;6.760;2023-01-30T15:36:48;101325.44;;;6.57;81.69
70015;BME280;57358;51.094;6.760;2023-01-30T15:39:24;101328.03;;;6.58;80.68
70015;BME280;57358;51.094;6.760;2023-01-30T15:41:53;101340.94;;;6.63;80.03
70015;BME280;57358;51.094;6.760;2023-01-30T15:44:49;101340.31;;;6.53;81.45
70015;BME280;57358;51.094;6.760;2023-01-30T15:50:06;101336.69;;;6.23;82.89
70015;BME280;57358;51.094;6.760;2023-01-30T15:52:39;101294.19;;;5.84;83.61